Time;durP1;ratioP1;P1;durP2;ratioP2;P2;SDS_P1;SDS_P2;PMS_P1;PMS_P2;Temp;Humidity;BMP_temperature;BMP_pressure;BME280_temperature;BME280_humidity;BME280_pressure;Samples;Min_cycle;Max_cycle;Signal;HPM_P1;HPM_P2
2021/05/18 00:00:29;;;;;;;0.50;0.40;;;11.30;93.00;;;;;;5015380;28;20036;-69
2021/05/18 00:02:56;;;;;;;1.00;0.70;;;11.30;93.10;;;;;;5032629;28;20033;-69
2021/05/18 00:05:23;;;;;;;3.08;0.60;;;11.40;93.10;;;;;;5032877;28;20527;-69
2021/05/18 00:08:00;;;;;;;1.00;0.52;;;11.40;93.00;;;;;;5031989;28;20033;-69
2021/05/18 00:13:13;;;;;;;1.00;0.55;;;11.40;93.10;;;;;;5032967;28;20095;-69
2021/05/18 00:15:39;;;;;;;1.63;0.50;;;11.40;93.20;;;;;;5014919;28;20485;-69
2021/05/18 00:18:06;;;;;;;2.78;0.60;;;11.40;93.10;;;;;;5014395;28;20052;-69
2021/05/18 00:20:34;;;;;;;1.20;0.50;;;11.40;93.10;;;;;;5015203;28;20032;-69
2021/05/18 00:23:00;;;;;;;0.43;0.30;;;11.40;93.20;;;;;;5014325;28;20475;-69
2021/05/18 00:25:26;;;;;;;0.98;0.43;;;11.40;93.10;;;;;;5014656;28;20080;-69
2021/05/18 00:27:51;;;;;;;0.80;0.40;;;11.40;93.20;;;;;;5014469;28;20040;-69
2021/05/18 00:30:18;;;;;;;2.95;0.65;;;11.40;93.10;;;;;;5031276;28;20446;-69
2021/05/18 00:32:43;;;;;;;0.70;0.47;;;11.40;93.10;;;;;;5032325;28;20055;-69
2021/05/18 00:35:12;;;;;;;1.35;0.40;;;11.40;93.10;;;;;;5014156;28;20025;-69
2021/05/18 00:37:38;;;;;;;0.70;0.30;;;11.30;93.10;;;;;;5032456;28;20082;-69
2021/05/18 00:40:07;;;;;;;1.45;0.60;;;11.40;93.10;;;;;;5030629;28;20030;-69
2021/05/18 00:42:48;;;;;;;1.08;0.52;;;11.30;93.10;;;;;;5014487;28;20033;-69
2021/05/18 00:45:15;;;;;;;1.27;0.40;;;11.30;93.30;;;;;;5015024;28;20391;-69
2021/05/18 00:47:41;;;;;;;2.05;0.30;;;11.30;93.20;;;;;;5014686;28;20384;-69
2021/05/18 00:50:07;;;;;;;0.80;0.38;;;11.30;93.30;;;;;;5014083;28;20025;-69
2021/05/18 00:52:33;;;;;;;0.80;0.40;;;11.30;93.30;;;;;;5032430;28;20033;-69
2021/05/18 00:55:07;;;;;;;1.75;0.45;;;11.20;93.40;;;;;;5032084;28;20040;-69
2021/05/18 01:00:18;;;;;;;1.80;0.70;;;11.20;93.40;;;;;;5032213;28;20032;-69
2021/05/18 01:02:47;;;;;;;1.42;0.30;;;11.20;93.50;;;;;;5014374;28;20029;-68
2021/05/18 01:05:19;;;;;;;0.85;0.40;;;11.20;93.50;;;;;;5031715;28;20117;-69
2021/05/18 01:07:47;;;;;;;1.45;0.43;;;11.20;93.60;;;;;;5014689;28;20425;-69
2021/05/18 01:10:14;;;;;;;1.35;0.30;;;11.10;93.60;;;;;;5013976;28;20076;-69
2021/05/18 01:12:39;;;;;;;0.45;0.32;;;11.10;93.60;;;;;;5014463;28;20429;-69
2021/05/18 01:15:06;;;;;;;0.93;0.20;;;11.10;93.60;;;;;;5013795;28;20030;-69
2021/05/18 01:17:32;;;;;;;1.55;0.43;;;11.10;93.80;;;;;;5015230;28;20029;-69
2021/05/18 01:20:10;;;;;;;1.70;0.40;;;11.10;93.80;;;;;;5017675;28;20026;-69
2021/05/18 01:22:36;;;;;;;0.93;0.50;;;11.10;93.80;;;;;;5035977;28;20021;-68
2021/05/18 01:25:04;;;;;;;0.63;0.40;;;11.00;93.80;;;;;;5017554;28;20036;-69
2021/05/18 01:27:30;;;;;;;0.43;0.30;;;11.00;93.60;;;;;;5018041;28;20382;-69
2021/05/18 01:29:56;;;;;;;0.32;0.30;;;11.00;93.60;;;;;;5017490;28;20029;-69
2021/05/18 01:32:24;;;;;;;1.45;0.30;;;10.90;93.60;;;;;;5018248;28;20029;-68
2021/05/18 01:34:50;;;;;;;0.47;0.40;;;10.90;93.50;;;;;;5017988;28;20057;-69
2021/05/18 01:37:16;;;;;;;1.27;0.40;;;10.90;93.60;;;;;;5017342;28;20025;-69
2021/05/18 01:44:57;;;;;;;1.25;0.22;;;10.80;93.60;;;;;;5034752;28;20040;-69
2021/05/18 01:47:23;;;;;;;0.98;0.50;;;10.80;93.60;;;;;;5034098;28;20045;-69
2021/05/18 01:49:49;;;;;;;1.55;0.40;;;10.80;93.50;;;;;;5017716;28;20485;-69
2021/05/18 01:52:14;;;;;;;0.45;0.40;;;10.80;93.50;;;;;;5034611;28;20037;-69
2021/05/18 01:54:40;;;;;;;0.65;0.30;;;10.80;93.50;;;;;;5017799;28;20485;-69
2021/05/18 01:57:20;;;;;;;0.30;0.20;;;10.80;93.40;;;;;;5017131;28;20491;-69
2021/05/18 01:59:49;;;;;;;0.40;0.25;;;10.80;93.30;;;;;;5035275;28;20033;-69
2021/05/18 02:02:15;;;;;;;2.47;0.30;;;10.80;93.30;;;;;;5034684;28;20026;-69
2021/05/18 02:04:56;;;;;;;0.70;0.45;;;10.80;93.30;;;;;;5017681;28;20029;-69
2021/05/18 02:07:29;;;;;;;0.32;0.30;;;10.90;93.30;;;;;;5017658;28;20026;-69
2021/05/18 02:09:55;;;;;;;0.40;0.30;;;10.90;93.20;;;;;;5034479;28;20037;-69
2021/05/18 02:12:20;;;;;;;1.65;0.40;;;10.90;93.30;;;;;;5033705;28;20076;-69
2021/05/18 02:14:50;;;;;;;1.15;0.50;;;10.80;93.40;;;;;;5034760;28;20099;-69
2021/05/18 02:24:38;;;;;;;0.60;0.40;;;10.90;93.50;;;;;;5035049;28;20033;-69
2021/05/18 02:25:08;;;;;;;1.45;0.47;;;10.90;93.60;;;;;;5033373;28;20032;-69
2021/05/18 02:27:35;;;;;;;1.00;0.43;;;10.80;93.50;;;;;;5033478;28;20037;-69
2021/05/18 02:30:00;;;;;;;0.57;0.20;;;10.80;93.50;;;;;;5015226;28;20021;-68
2021/05/18 02:32:28;;;;;;;0.73;0.30;;;10.80;93.50;;;;;;5034993;28;20021;-68
2021/05/18 02:34:54;;;;;;;0.90;0.35;;;10.80;93.30;;;;;;5016906;28;20049;-68
2021/05/18 02:37:20;;;;;;;2.45;0.30;;;10.80;93.20;;;;;;5033983;28;20030;-68
2021/05/18 02:39:46;;;;;;;0.40;0.25;;;10.80;93.20;;;;;;5034586;28;20033;-71
2021/05/18 02:42:12;;;;;;;0.47;0.20;;;10.80;92.90;;;;;;5016154;28;20100;-71
2021/05/18 02:49:57;;;;;;;2.47;0.68;;;10.70;92.60;;;;;;5033879;28;20123;-70
2021/05/18 02:52:23;;;;;;;1.30;0.52;;;10.70;92.50;;;;;;5034006;28;20105;-69
2021/05/18 02:54:52;;;;;;;2.70;0.40;;;10.70;92.60;;;;;;5016435;28;20026;-69
2021/05/18 02:57:32;;;;;;;1.48;0.40;;;10.70;92.50;;;;;;5033980;28;20590;-69
2021/05/18 03:00:06;;;;;;;1.88;0.57;;;10.70;92.40;;;;;;5015787;28;20044;-69
2021/05/18 03:02:31;;;;;;;2.45;0.70;;;10.70;92.50;;;;;;5034145;28;20037;-69
2021/05/18 03:04:57;;;;;;;1.13;0.60;;;10.70;92.60;;;;;;5016008;28;20030;-73
2021/05/18 03:07:23;;;;;;;2.25;0.63;;;10.80;92.40;;;;;;5034037;28;20031;-69
2021/05/18 03:09:48;;;;;;;1.00;0.60;;;10.80;92.40;;;;;;5033945;28;20462;-69
2021/05/18 03:12:14;;;;;;;1.05;0.40;;;10.70;92.40;;;;;;5033085;28;20459;-69
2021/05/18 03:14:40;;;;;;;1.80;0.40;;;10.70;92.40;;;;;;5032596;28;20107;-69
2021/05/18 03:17:06;;;;;;;1.50;0.60;;;10.70;92.40;;;;;;5033556;28;20033;-69
2021/05/18 03:19:32;;;;;;;0.43;0.40;;;10.70;92.30;;;;;;5016164;28;20132;-69
2021/05/18 03:21:58;;;;;;;2.60;0.28;;;10.70;92.30;;;;;;5033714;28;20451;-69
2021/05/18 03:24:23;;;;;;;0.50;0.40;;;10.70;92.40;;;;;;5016230;28;20061;-69
2021/05/18 03:26:50;;;;;;;2.47;0.50;;;10.70;92.30;;;;;;5015666;28;20079;-69
2021/05/18 03:37:02;;;;;;;3.80;1.30;;;10.70;92.40;;;;;;5033489;28;20029;-69
2021/05/18 03:39:30;;;;;;;4.50;1.00;;;10.70;92.40;;;;;;5033381;28;20034;-69
2021/05/18 04:04:31;;;;;;;1.27;0.70;;;10.70;92.70;;;;;;5033105;28;20075;-69
2021/05/18 04:12:11;;;;;;;1.95;0.50;;;10.80;92.60;;;;;;5032059;28;20036;-69
2021/05/18 04:17:16;;;;;;;1.70;0.80;;;10.80;92.70;;;;;;5032155;28;20045;-69
2021/05/18 04:20:22;;;;;;;1.38;0.60;;;10.80;92.90;;;;;;5015007;28;20109;-69
2021/05/18 04:22:48;;;;;;;;;;;10.90;92.90;;;;;;5028873;28;20061;-69
2021/05/18 04:39:35;;;;;;;2.10;0.80;;;10.90;92.70;;;;;;5032427;28;20049;-69
2021/05/18 04:52:27;;;;;;;0.82;0.45;;;11.10;92.70;;;;;;5032441;28;20033;-69
2021/05/18 05:00:27;;;;;;;3.78;0.70;;;11.10;92.60;;;;;;5035859;28;20540;-69
2021/05/18 05:15:42;;;;;;;2.85;0.80;;;11.20;92.50;;;;;;5036091;28;20481;-69
2021/05/18 05:18:09;;;;;;;2.75;0.60;;;11.20;92.50;;;;;;5035664;28;20040;-70
2021/05/18 05:20:36;;;;;;;1.42;0.63;;;11.20;92.50;;;;;;5036041;28;20458;-69
2021/05/18 05:23:02;;;;;;;1.52;0.70;;;11.20;92.40;;;;;;5035960;28;20036;-69
2021/05/18 05:25:27;;;;;;;1.88;0.38;;;11.20;92.40;;;;;;5017312;28;20025;-69
2021/05/18 05:27:53;;;;;;;1.33;0.50;;;11.20;92.00;;;;;;5034665;28;20036;-69
2021/05/18 05:30:19;;;;;;;0.93;0.50;;;11.20;92.40;;;;;;5035305;28;20438;-69
2021/05/18 05:32:44;;;;;;;1.73;0.52;;;11.30;92.60;;;;;;5035538;28;20029;-69
2021/05/18 05:35:10;;;;;;;0.88;0.60;;;11.20;92.90;;;;;;5017421;28;20033;-69
2021/05/18 05:37:36;;;;;;;0.68;0.60;;;11.30;92.60;;;;;;5035711;28;20053;-69
2021/05/18 05:40:03;;;;;;;2.55;0.63;;;11.30;92.60;;;;;;5035416;28;20532;-69
2021/05/18 05:42:29;;;;;;;4.63;0.70;;;11.30;92.70;;;;;;5034697;28;20029;-69
2021/05/18 05:44:55;;;;;;;1.50;0.68;;;11.30;92.70;;;;;;5017899;28;20033;-69
2021/05/18 05:47:20;;;;;;;1.40;0.63;;;11.30;92.80;;;;;;5033251;28;20512;-69
2021/05/18 05:49:46;;;;;;;1.17;0.57;;;11.40;92.80;;;;;;5035527;28;20065;-69
2021/05/18 05:52:18;;;;;;;1.77;0.47;;;11.40;92.60;;;;;;5034855;28;20556;-70
2021/05/18 05:54:43;;;;;;;0.35;0.35;;;11.40;92.40;;;;;;5017816;28;20092;-69
2021/05/18 05:57:09;;;;;;;1.88;0.50;;;11.40;92.30;;;;;;5034735;28;20466;-70
2021/05/18 05:59:34;;;;;;;2.47;0.45;;;11.40;92.20;;;;;;5017522;28;20148;-69
2021/05/18 06:02:03;;;;;;;0.52;0.38;;;11.40;92.30;;;;;;5017625;28;20029;-70
2021/05/18 06:04:29;;;;;;;1.50;0.40;;;11.50;92.20;;;;;;5034468;28;20029;-69
2021/05/18 06:06:55;;;;;;;2.47;0.47;;;11.50;92.00;;;;;;5017419;28;20030;-69
2021/05/18 06:09:21;;;;;;;1.00;0.40;;;11.40;91.70;;;;;;5016641;28;20040;-69
2021/05/18 06:42:07;;;;;;;1.17;0.70;;;11.80;90.30;;;;;;5034384;28;20079;-69
2021/05/18 06:47:31;;;;;;;3.00;1.88;;;12.00;90.20;;;;;;5033967;28;20140;-69
2021/05/18 06:50:10;;;;;;;4.90;0.80;;;12.10;89.70;;;;;;5016819;28;20030;-69
2021/05/18 06:52:36;;;;;;;2.08;0.85;;;12.20;89.40;;;;;;5034531;28;20025;-69
2021/05/18 06:55:04;;;;;;;2.25;0.77;;;12.30;89.50;;;;;;5034269;28;20152;-69
2021/05/18 06:57:31;;;;;;;2.92;0.60;;;12.40;89.50;;;;;;5015852;28;20033;-69
2021/05/18 07:00:14;;;;;;;1.10;0.57;;;12.40;88.70;;;;;;5016331;28;20041;-69
2021/05/18 07:02:43;;;;;;;1.33;0.70;;;12.40;87.60;;;;;;5016674;28;20025;-69
2021/05/18 07:10:43;;;;;;;2.35;0.80;;;12.20;88.40;;;;;;5034173;28;20029;-69
2021/05/18 07:13:10;;;;;;;1.00;0.80;;;12.20;88.10;;;;;;5016228;28;20025;-69
2021/05/18 07:15:38;;;;;;;2.05;0.65;;;12.20;88.20;;;;;;5031355;28;20030;-69
2021/05/18 07:18:04;;;;;;;1.08;0.43;;;12.30;88.60;;;;;;5033721;28;20033;-69
2021/05/18 07:20:31;;;;;;;2.25;0.75;;;12.30;87.60;;;;;;5032986;28;20368;-69
2021/05/18 07:22:59;;;;;;;2.00;0.63;;;12.40;87.20;;;;;;5016305;28;20025;-69
2021/05/18 07:25:25;;;;;;;2.05;0.70;;;12.50;87.20;;;;;;5015336;28;20387;-69
2021/05/18 07:27:51;;;;;;;0.85;0.50;;;12.80;85.80;;;;;;5033620;28;20035;-69
2021/05/18 07:30:17;;;;;;;3.60;0.75;;;12.80;85.20;;;;;;5033019;28;20076;-69
2021/05/18 07:32:43;;;;;;;2.42;0.60;;;12.80;85.50;;;;;;5016111;28;20057;-69
2021/05/18 07:35:11;;;;;;;4.45;0.73;;;12.80;85.40;;;;;;5015794;28;20033;-69
2021/05/18 07:37:37;;;;;;;3.45;0.60;;;12.90;85.10;;;;;;5015114;28;20036;-69
2021/05/18 07:40:03;;;;;;;1.05;0.70;;;13.00;85.30;;;;;;5015684;28;20038;-69
2021/05/18 07:42:29;;;;;;;1.85;0.73;;;13.10;85.00;;;;;;5014725;28;20029;-69
2021/05/18 07:44:54;;;;;;;2.45;0.73;;;13.10;85.10;;;;;;5015293;28;20040;-69
2021/05/18 07:47:22;;;;;;;1.92;0.60;;;13.10;85.00;;;;;;5031046;28;20083;-69
2021/05/18 07:49:50;;;;;;;3.63;0.80;;;13.10;84.50;;;;;;5032139;28;20436;-69
2021/05/18 08:05:57;;;;;;;1.38;0.50;;;12.80;83.60;;;;;;5032815;28;20092;-69
2021/05/18 08:08:22;;;;;;;1.92;0.75;;;12.90;83.70;;;;;;5032364;28;20029;-71
2021/05/18 08:10:58;;;;;;;4.68;0.85;;;13.10;84.10;;;;;;5014894;28;20091;-71
2021/05/18 08:13:24;;;;;;;3.47;0.90;;;13.30;82.30;;;;;;5032317;28;20099;-69
2021/05/18 08:16:59;;;;;;;4.47;0.70;;;13.40;80.90;;;;;;5014969;28;20478;-69
2021/05/18 10:27:23;;;;;;;0.85;0.50;;;14.00;66.00;;;;;;5034947;28;20087;-71
2021/05/18 10:34:23;;;;;;;1.02;0.40;;;13.90;71.70;;;;;;5034974;28;20040;-72
2021/05/18 10:36:49;;;;;;;1.00;0.30;;;14.00;69.80;;;;;;5016353;28;20124;-69
2021/05/18 10:39:25;;;;;;;0.63;0.20;;;14.00;69.20;;;;;;5034579;28;20112;-69
2021/05/18 10:41:51;;;;;;;0.52;0.30;;;14.00;67.70;;;;;;5017019;28;20022;-69
2021/05/18 10:44:17;;;;;;;2.35;0.40;;;14.10;68.90;;;;;;5016752;28;20032;-69
2021/05/18 10:46:51;;;;;;;3.08;0.52;;;14.20;68.60;;;;;;5033491;28;20072;-69
2021/05/18 10:49:34;;;;;;;3.10;0.40;;;14.30;69.90;;;;;;5034577;28;20033;-69
2021/05/18 10:52:02;;;;;;;2.20;0.30;;;14.40;67.50;;;;;;5033848;28;20040;-69
2021/05/18 10:54:36;;;;;;;1.20;0.30;;;14.40;67.60;;;;;;5015803;28;20033;-70
2021/05/18 10:57:18;;;;;;;0.95;0.20;;;14.60;68.10;;;;;;5034311;28;20018;-69
2021/05/18 10:59:46;;;;;;;1.52;0.45;;;14.80;66.70;;;;;;5033576;28;20088;-69
2021/05/18 11:02:20;;;;;;;2.08;0.38;;;15.00;64.70;;;;;;5016422;28;20378;-69
2021/05/18 11:05:00;;;;;;;3.50;0.30;;;15.30;65.00;;;;;;5033549;28;20033;-69
2021/05/18 11:07:31;;;;;;;1.73;0.30;;;15.50;63.40;;;;;;5016319;28;20124;-73
2021/05/18 11:09:57;;;;;;;0.30;0.20;;;15.60;61.40;;;;;;5033798;28;20095;-69
2021/05/18 11:12:26;;;;;;;1.75;0.30;;;15.50;61.80;;;;;;5016154;28;20462;-69
2021/05/18 11:14:58;;;;;;;1.98;0.38;;;15.50;60.50;;;;;;5033923;28;20031;-69
2021/05/18 11:17:25;;;;;;;3.45;0.60;;;15.60;60.20;;;;;;5034057;28;20365;-69
2021/05/18 11:20:08;;;;;;;0.90;0.30;;;15.60;63.80;;;;;;5015419;28;20066;-69
2021/05/18 11:25:40;;;;;;;1.65;0.25;;;15.60;64.00;;;;;;5032963;28;20088;-70
2021/05/18 11:28:10;;;;;;;2.35;0.20;;;15.30;63.50;;;;;;5015922;28;20033;-70
2021/05/18 11:30:37;;;;;;;1.27;0.17;;;15.10;63.40;;;;;;5033072;28;20076;-70
2021/05/18 11:33:03;;;;;;;1.13;0.30;;;15.00;62.90;;;;;;5015849;28;20379;-70
2021/05/18 11:35:28;;;;;;;0.57;0.10;;;14.80;62.10;;;;;;5031690;28;20036;-70
2021/05/18 11:38:06;;;;;;;0.28;0.20;;;14.80;61.00;;;;;;5033482;28;20055;-70
2021/05/18 11:40:50;;;;;;;0.65;0.20;;;14.80;60.30;;;;;;5015316;28;20048;-70
2021/05/18 11:43:33;;;;;;;0.30;0.10;;;14.70;60.30;;;;;;5033434;28;20030;-70
2021/05/18 11:46:11;;;;;;;0.20;0.10;;;14.70;60.50;;;;;;5031809;28;20128;-70
2021/05/18 11:48:56;;;;;;;0.52;0.10;;;14.80;59.70;;;;;;5015091;28;20041;-70
2021/05/18 11:51:22;;;;;;;2.05;0.10;;;14.80;60.30;;;;;;5033297;28;20029;-70
2021/05/18 11:53:50;;;;;;;0.70;0.10;;;14.90;61.70;;;;;;5014904;28;20422;-70
2021/05/18 11:56:21;;;;;;;0.77;0.20;;;14.90;61.20;;;;;;5015569;28;20021;-70
2021/05/18 11:58:47;;;;;;;2.15;0.35;;;14.90;61.90;;;;;;5014838;28;20037;-70
2021/05/18 12:01:15;;;;;;;0.50;0.15;;;15.00;62.60;;;;;;5015220;28;20471;-70
2021/05/18 12:03:41;;;;;;;4.10;0.40;;;15.20;63.00;;;;;;5032447;28;20025;-70
2021/05/18 12:06:07;;;;;;;2.28;0.20;;;15.20;61.90;;;;;;5033027;28;20032;-70
2021/05/18 12:08:37;;;;;;;1.70;0.50;;;15.30;62.20;;;;;;5032403;28;20048;-70
2021/05/18 12:11:20;;;;;;;0.25;0.10;;;15.40;62.00;;;;;;5014967;28;20057;-70
2021/05/18 12:13:51;;;;;;;0.88;0.20;;;15.40;62.30;;;;;;5014640;28;20029;-70
2021/05/18 12:16:18;;;;;;;1.75;0.30;;;15.50;61.90;;;;;;5032674;28;20033;-70
2021/05/18 12:18:50;;;;;;;0.20;0.10;;;15.60;62.00;;;;;;5032008;28;20034;-70
2021/05/18 12:21:19;;;;;;;1.80;0.30;;;15.70;62.10;;;;;;5015277;28;20382;-70
2021/05/18 12:24:09;;;;;;;0.55;0.10;;;15.90;61.60;;;;;;5031749;28;20029;-70
2021/05/18 12:26:50;;;;;;;0.32;0.10;;;16.10;59.10;;;;;;5032086;28;20025;-70
2021/05/18 12:29:53;;;;;;;2.45;0.30;;;16.30;56.20;;;;;;5015027;28;20080;-70
2021/05/18 12:32:27;;;;;;;0.10;0.10;;;16.60;56.70;;;;;;5013909;28;20088;-70
2021/05/18 12:35:02;;;;;;;1.27;0.15;;;17.00;57.30;;;;;;5031935;28;20025;-70
2021/05/18 12:37:37;;;;;;;0.30;0.10;;;16.90;53.30;;;;;;5015057;28;20044;-70
2021/05/18 12:40:10;;;;;;;1.55;0.20;;;17.00;52.30;;;;;;5032423;28;20030;-70
2021/05/18 12:42:36;;;;;;;0.20;0.10;;;17.00;50.70;;;;;;5031978;28;20030;-70
2021/05/18 12:45:12;;;;;;;0.05;0.05;;;17.00;50.90;;;;;;5014662;28;20032;-71
2021/05/18 12:47:40;;;;;;;0.73;0.20;;;17.00;51.00;;;;;;5031703;28;20053;-70
2021/05/18 12:50:12;;;;;;;1.02;0.10;;;17.10;51.00;;;;;;5014304;28;20060;-70
2021/05/18 12:52:50;;;;;;;0.57;0.10;;;17.20;49.40;;;;;;5031733;28;20021;-70
2021/05/18 12:55:29;;;;;;;1.00;0.10;;;17.30;50.10;;;;;;5014508;28;20053;-70
2021/05/18 12:58:07;;;;;;;1.38;0.17;;;17.40;46.80;;;;;;5013866;28;20029;-70
2021/05/18 13:00:36;;;;;;;2.42;0.10;;;17.70;47.20;;;;;;5031703;28;20034;-73
2021/05/18 13:03:16;;;;;;;1.73;0.35;;;17.90;47.80;;;;;;5032170;28;20508;-70
2021/05/18 13:06:01;;;;;;;0.52;0.20;;;17.80;46.70;;;;;;5013848;28;20033;-70
2021/05/18 13:08:29;;;;;;;0.40;0.10;;;17.90;47.00;;;;;;5014519;28;20029;-70
2021/05/18 13:11:15;;;;;;;1.35;0.20;;;17.90;47.00;;;;;;5031644;28;20030;-70
2021/05/18 13:13:41;;;;;;;0.85;0.17;;;18.10;47.60;;;;;;5032712;28;20466;-70
2021/05/18 13:16:11;;;;;;;0.70;0.17;;;18.20;47.20;;;;;;5018399;28;20083;-70
2021/05/18 13:18:58;;;;;;;0.95;0.10;;;18.40;47.30;;;;;;5035231;28;20055;-71
2021/05/18 13:21:34;;;;;;;0.57;0.10;;;18.60;46.60;;;;;;5018235;28;20037;-70
2021/05/18 13:24:25;;;;;;;0.90;0.20;;;18.90;46.60;;;;;;5018376;28;20029;-70
2021/05/18 13:26:47;;;;;;;0.68;0.20;;;19.00;46.50;;;;;;5035243;28;20025;-70
2021/05/18 13:29:17;;;;;;;1.17;0.35;;;19.30;45.50;;;;;;5036270;28;20442;-70
2021/05/18 13:31:43;;;;;;;2.08;0.13;;;19.90;45.00;;;;;;5035326;28;20073;-70
2021/05/18 13:34:09;;;;;;;0.68;0.20;;;19.90;46.20;;;;;;5036136;28;20052;-70
2021/05/18 13:36:36;;;;;;;0.32;0.25;;;20.30;46.60;;;;;;5035421;28;20025;-73
2021/05/18 13:39:05;;;;;;;0.47;0.10;;;20.60;45.80;;;;;;5017965;28;20448;-71
2021/05/18 13:41:31;;;;;;;1.65;0.20;;;20.90;44.50;;;;;;5035768;28;20037;-70
2021/05/18 13:43:57;;;;;;;1.38;0.10;;;21.00;43.40;;;;;;5035126;28;20033;-71
2021/05/18 13:46:22;;;;;;;0.77;0.10;;;21.50;42.90;;;;;;5014422;28;20144;-70
2021/05/18 13:48:48;;;;;;;0.10;0.10;;;21.50;41.00;;;;;;5030489;28;20121;-71
2021/05/18 13:51:16;;;;;;;1.05;0.13;;;21.30;41.10;;;;;;5031102;28;20125;-69
2021/05/18 13:53:42;;;;;;;1.02;0.13;;;21.10;42.30;;;;;;5015150;28;20029;-69
2021/05/18 13:56:09;;;;;;;0.73;0.32;;;21.10;42.60;;;;;;5015630;28;20112;-70
2021/05/18 13:58:34;;;;;;;0.10;0.10;;;20.90;42.60;;;;;;5015485;28;20029;-69
2021/05/18 14:01:04;;;;;;;0.93;0.25;;;20.70;43.30;;;;;;5013723;28;20351;-69
2021/05/18 14:03:29;;;;;;;0.65;0.10;;;20.00;44.00;;;;;;5015165;28;20368;-69
2021/05/18 14:05:55;;;;;;;1.80;0.15;;;19.50;46.00;;;;;;5013474;28;20032;-69
2021/05/18 14:08:37;;;;;;;0.40;0.10;;;19.20;47.00;;;;;;5014162;28;20029;-69
2021/05/18 14:11:22;;;;;;;3.40;0.35;;;18.80;46.80;;;;;;5015508;28;20022;-69
2021/05/18 14:13:53;;;;;;;0.22;0.10;;;18.50;48.80;;;;;;5013572;28;20485;-69
2021/05/18 14:16:21;;;;;;;0.85;0.20;;;17.80;49.70;;;;;;5015102;28;20034;-71
2021/05/18 14:18:49;;;;;;;1.58;0.10;;;17.40;55.20;;;;;;5014605;28;20037;-71
2021/05/18 14:21:16;;;;;;;0.68;0.10;;;17.10;56.70;;;;;;5015267;28;20045;-71
2021/05/18 14:26:13;;;;;;;1.80;0.15;;;16.80;58.60;;;;;;5015086;28;20029;-71
2021/05/18 14:28:39;;;;;;;0.35;0.10;;;16.70;57.90;;;;;;5014506;28;20038;-72
2021/05/18 14:31:08;;;;;;;2.25;0.20;;;16.50;58.70;;;;;;5015024;28;20030;-71
2021/05/18 14:33:35;;;;;;;1.85;0.20;;;16.40;61.90;;;;;;5014700;28;20057;-71
2021/05/18 14:36:01;;;;;;;1.00;0.20;;;16.30;62.40;;;;;;5013057;28;20030;-71
2021/05/18 14:38:28;;;;;;;0.50;0.17;;;16.20;63.10;;;;;;5030045;28;20033;-71
2021/05/18 14:46:19;;;;;;;1.25;0.15;;;15.90;62.90;;;;;;5017358;28;20113;-71
2021/05/18 14:54:55;;;;;;;0.90;0.10;;;16.30;62.70;;;;;;5027858;28;20049;-71
2021/05/18 14:57:17;;;;;;;3.88;1.75;;;16.60;64.10;;;;;;5033789;28;20493;-69
2021/05/18 14:59:42;;;;;;;8.77;3.78;;;17.00;63.20;;;;;;5033558;28;20026;-69
2021/05/18 15:02:09;;;;;;;1.35;0.50;;;17.50;57.50;;;;;;5016453;28;20100;-69
2021/05/18 15:04:38;;;;;;;0.50;0.28;;;17.90;55.40;;;;;;5034203;28;20028;-69
2021/05/18 15:07:06;;;;;;;2.03;0.95;;;17.80;54.30;;;;;;5033521;28;20028;-69
2021/05/18 15:09:33;;;;;;;0.10;0.10;;;17.90;54.40;;;;;;5016463;28;20044;-69
2021/05/18 15:11:58;;;;;;;1.20;0.20;;;18.00;53.50;;;;;;5015665;28;20040;-69
2021/05/18 15:14:24;;;;;;;0.65;0.20;;;17.90;54.20;;;;;;5034249;28;20025;-69
2021/05/18 15:16:49;;;;;;;0.10;0.10;;;17.70;55.00;;;;;;5015600;28;20033;-69
2021/05/18 15:19:17;;;;;;;0.55;0.10;;;17.40;54.60;;;;;;5033503;28;20030;-69
2021/05/18 15:21:43;;;;;;;2.60;0.20;;;17.20;55.80;;;;;;5031898;28;20033;-69
2021/05/18 15:24:10;;;;;;;10.98;6.05;;;16.90;57.30;;;;;;5032578;28;20063;-69
2021/05/18 15:26:36;;;;;;;0.93;0.47;;;16.60;59.40;;;;;;5033799;28;20026;-69
2021/05/18 15:29:03;;;;;;;1.08;0.45;;;16.40;59.50;;;;;;5015048;28;20508;-69
2021/05/18 15:31:29;;;;;;;1.70;0.20;;;16.30;60.70;;;;;;5015507;28;20056;-69
2021/05/18 15:33:55;;;;;;;1.25;0.28;;;16.30;59.10;;;;;;5031678;28;20080;-69
2021/05/18 15:36:21;;;;;;;1.83;0.20;;;16.30;60.30;;;;;;5015427;28;20079;-69
2021/05/18 15:38:47;;;;;;;0.98;0.40;;;16.20;59.70;;;;;;5032781;28;20429;-69
2021/05/18 15:41:14;;;;;;;1.67;0.20;;;16.10;60.50;;;;;;5015759;28;20033;-69
2021/05/18 15:43:41;;;;;;;0.38;0.22;;;16.00;61.20;;;;;;5033365;28;20032;-69
2021/05/18 15:46:07;;;;;;;0.70;0.22;;;15.90;62.00;;;;;;5014866;28;20032;-69
2021/05/18 15:48:33;;;;;;;1.13;0.20;;;15.70;63.80;;;;;;5015661;28;20033;-69
2021/05/18 15:51:00;;;;;;;0.52;0.15;;;15.60;64.60;;;;;;5032624;28;20040;-69
2021/05/18 15:53:25;;;;;;;0.20;0.10;;;15.60;64.00;;;;;;5033266;28;20021;-69
2021/05/18 15:55:51;;;;;;;1.17;0.17;;;15.70;65.20;;;;;;5031423;28;20037;-69
2021/05/18 15:58:17;;;;;;;1.08;0.40;;;16.20;63.20;;;;;;5033076;28;20417;-69
2021/05/18 16:00:47;;;;;;;0.47;0.20;;;16.70;60.70;;;;;;5033092;28;20033;-69
2021/05/18 16:03:12;;;;;;;0.20;0.10;;;16.80;61.90;;;;;;5031757;28;20474;-69
2021/05/18 16:05:38;;;;;;;0.65;0.15;;;16.70;63.20;;;;;;5033403;28;20029;-69
2021/05/18 16:08:58;;;;;;;0.68;0.10;;;16.70;62.30;;;;;;5030757;28;20033;-69
2021/05/18 16:10:50;;;;;;;0.70;0.20;;;16.60;62.40;;;;;;5031557;28;20021;-69
2021/05/18 16:13:15;;;;;;;1.15;0.30;;;16.50;62.20;;;;;;5015242;28;20141;-69
2021/05/18 16:15:41;;;;;;;0.70;0.35;;;16.70;61.40;;;;;;5031410;28;20065;-69
2021/05/18 16:18:06;;;;;;;24.23;11.38;;;16.80;61.50;;;;;;5032100;28;20079;-69
2021/05/18 16:20:32;;;;;;;13.68;6.43;;;16.90;61.30;;;;;;5032875;28;20037;-69
2021/05/18 16:22:58;;;;;;;1.75;0.88;;;17.40;60.40;;;;;;5030930;28;20445;-69
2021/05/18 16:25:23;;;;;;;1.92;1.08;;;18.10;56.90;;;;;;5032347;28;20034;-69
2021/05/18 16:27:50;;;;;;;2.80;0.60;;;18.40;56.90;;;;;;5014293;28;20029;-69
2021/05/18 16:30:16;;;;;;;2.20;0.47;;;18.20;56.80;;;;;;5032684;28;20061;-69
2021/05/18 16:32:41;;;;;;;1.65;0.57;;;18.10;56.80;;;;;;5032373;28;20087;-68
2021/05/18 16:35:07;;;;;;;5.38;2.65;;;18.00;57.50;;;;;;5030770;28;20433;-69
2021/05/18 16:37:33;;;;;;;1.00;0.60;;;18.00;58.30;;;;;;5032425;28;20044;-69
2021/05/18 16:39:59;;;;;;;1.98;0.40;;;17.70;59.10;;;;;;5031636;28;20429;-69
2021/05/18 16:42:24;;;;;;;0.47;0.32;;;17.40;60.60;;;;;;5014788;28;20029;-69
2021/05/18 16:44:50;;;;;;;0.30;0.20;;;17.50;58.30;;;;;;5031651;28;20390;-69
2021/05/18 16:47:16;;;;;;;0.60;0.30;;;17.30;59.10;;;;;;5030800;28;20053;-69
2021/05/18 16:49:42;;;;;;;1.00;0.10;;;17.20;58.70;;;;;;5014035;28;20041;-69
2021/05/18 16:52:07;;;;;;;1.17;0.40;;;17.10;58.70;;;;;;5031606;28;20040;-69
2021/05/18 16:54:33;;;;;;;0.32;0.10;;;17.10;58.90;;;;;;5032467;28;20152;-69
2021/05/18 16:56:59;;;;;;;2.45;0.35;;;17.00;59.10;;;;;;5014182;28;20123;-69
2021/05/18 16:59:24;;;;;;;1.10;0.15;;;16.90;59.30;;;;;;5031041;28;20363;-69
2021/05/18 17:01:50;;;;;;;0.90;0.30;;;16.90;59.10;;;;;;5031831;28;20145;-69
2021/05/18 17:04:17;;;;;;;1.25;0.30;;;16.60;58.80;;;;;;5014533;28;20029;-69
2021/05/18 17:06:44;;;;;;;0.93;0.17;;;16.40;59.20;;;;;;5014729;28;20022;-69
2021/05/18 17:09:10;;;;;;;1.23;0.30;;;16.20;60.30;;;;;;5013934;28;20385;-71
2021/05/18 17:11:39;;;;;;;0.20;0.10;;;16.10;60.90;;;;;;5032168;28;20113;-70
2021/05/18 17:14:05;;;;;;;0.20;0.13;;;16.10;61.80;;;;;;5013979;28;20390;-70
2021/05/18 17:16:31;;;;;;;0.90;0.30;;;16.00;62.60;;;;;;5014390;28;20029;-70
2021/05/18 17:18:57;;;;;;;1.08;0.20;;;16.00;62.40;;;;;;5031688;28;20034;-70
2021/05/18 17:21:23;;;;;;;0.95;0.30;;;15.90;62.30;;;;;;5030852;28;20080;-70
2021/05/18 17:23:49;;;;;;;2.03;0.20;;;15.90;62.60;;;;;;5013852;28;20067;-71
2021/05/18 17:26:14;;;;;;;0.40;0.20;;;15.80;63.00;;;;;;5032382;28;20053;-70
2021/05/18 17:28:40;;;;;;;0.47;0.08;;;15.70;63.40;;;;;;5014462;28;20032;-69
2021/05/18 17:31:08;;;;;;;0.63;0.10;;;15.70;62.80;;;;;;5013777;28;20076;-69
2021/05/18 17:33:35;;;;;;;0.25;0.20;;;15.70;62.00;;;;;;5014250;28;20057;-69
2021/05/18 17:36:00;;;;;;;9.45;5.35;;;15.90;63.50;;;;;;5030273;28;20056;-69
2021/05/18 17:38:27;;;;;;;4.13;1.77;;;15.80;63.30;;;;;;5014517;28;20060;-69
2021/05/18 17:40:53;;;;;;;0.90;0.63;;;15.70;63.40;;;;;;5013381;28;20372;-70
2021/05/18 17:43:18;;;;;;;0.85;0.20;;;15.70;62.50;;;;;;5014221;28;20032;-69
2021/05/18 17:45:45;;;;;;;0.65;0.20;;;15.60;60.00;;;;;;5031777;28;20032;-69
2021/05/18 17:48:11;;;;;;;0.45;0.20;;;15.40;59.80;;;;;;5030965;28;20560;-70
2021/05/18 17:50:36;;;;;;;0.30;0.20;;;15.40;60.60;;;;;;5031973;28;20101;-70
2021/05/18 17:53:03;;;;;;;0.43;0.08;;;15.30;59.30;;;;;;5013574;28;20103;-70
2021/05/18 17:55:28;;;;;;;0.63;0.20;;;15.30;60.10;;;;;;5014246;28;20026;-69
2021/05/18 17:57:54;;;;;;;0.43;0.10;;;15.20;59.90;;;;;;5031312;28;20443;-70
2021/05/18 18:00:21;;;;;;;0.73;0.20;;;15.10;60.70;;;;;;5016026;28;20425;-69